Time;durP1;ratioP1;P1;durP2;ratioP2;P2;SDS_P1;SDS_P2;PMS_P1;PMS_P2;Temp;Humidity;BMP_temperature;BMP_pressure;BME280_temperature;BME280_humidity;BME280_pressure;Samples;Min_cycle;Max_cycle;Signal;HPM_P1;HPM_P2
2021/06/12 00:01:53;;;;;;;4.95;2.80;;;;;;;24.45;31.16;101476.41;3606275;39;20056;-72
2021/06/12 00:04:23;;;;;;;5.53;3.53;;;;;;;24.44;31.25;101474.72;3603032;39;20074;-72
2021/06/12 00:06:57;;;;;;;5.45;3.40;;;;;;;24.40;31.49;101476.19;3602257;39;20479;-72
2021/06/12 00:09:24;;;;;;;5.85;3.58;;;;;;;24.39;31.58;101476.41;3608539;39;20132;-72
2021/06/12 00:11:54;;;;;;;5.70;3.33;;;;;;;24.38;31.29;101480.25;3604148;39;20063;-72
2021/06/12 00:14:22;;;;;;;5.70;3.47;;;;;;;24.35;31.58;101469.50;3610381;39;20106;-72
2021/06/12 00:16:50;;;;;;;4.72;3.13;;;;;;;24.32;31.25;101467.13;3600449;39;20151;-72
2021/06/12 00:19:18;;;;;;;4.80;3.20;;;;;;;24.29;31.82;101468.41;3611785;39;20290;-72
2021/06/12 00:27:05;;;;;;;4.88;2.63;;;;;;;24.17;31.70;101458.91;3609627;39;20042;-72
2021/06/12 00:34:26;;;;;;;3.88;2.53;;;;;;;24.08;31.58;101462.94;3573414;39;20335;-73
2021/06/12 00:36:54;;;;;;;4.95;2.70;;;;;;;24.06;31.95;101451.94;3608118;39;20056;-72
2021/06/12 00:39:21;;;;;;;4.20;2.70;;;;;;;24.07;31.78;101452.81;3605531;39;20040;-72
2021/06/12 00:41:49;;;;;;;4.32;2.67;;;;;;;24.06;32.06;101456.69;3599144;39;20059;-72
2021/06/12 00:44:17;;;;;;;6.70;3.08;;;;;;;24.06;31.53;101451.09;3604704;39;20042;-72
2021/06/12 00:46:45;;;;;;;4.50;2.67;;;;;;;24.04;32.10;101448.47;3612450;39;20043;-72
2021/06/12 00:49:13;;;;;;;4.60;2.83;;;;;;;24.02;31.93;101439.44;3609893;39;20303;-72
2021/06/12 00:51:42;;;;;;;4.63;3.00;;;;;;;24.05;32.12;101444.59;3609724;39;20107;-72
2021/06/12 00:54:10;;;;;;;4.65;2.97;;;;;;;24.00;31.82;101433.19;3607676;39;20102;-72
2021/06/12 00:56:37;;;;;;;4.43;2.88;;;;;;;23.98;31.95;101438.13;3611587;39;20042;-72
2021/06/12 00:59:05;;;;;;;4.78;2.97;;;;;;;23.97;32.28;101428.00;3607301;39;20043;-72
2021/06/12 01:01:48;;;;;;;;;;;;;;;23.68;32.57;101422.69;3615393;39;20408;-72
2021/06/12 01:04:15;;;;;;;4.28;2.42;;;;;;;23.91;31.98;101428.84;3600295;39;19940;-72
2021/06/12 01:06:49;;;;;;;5.57;3.03;;;;;;;23.96;32.36;101423.47;3613166;39;20043;-73
2021/06/12 01:09:17;;;;;;;4.70;2.92;;;;;;;23.93;32.03;101423.06;3608015;39;20048;-72
2021/06/12 01:11:55;;;;;;;4.93;3.30;;;;;;;23.94;32.44;101428.44;3613421;39;20083;-73
2021/06/12 01:14:26;;;;;;;5.05;3.42;;;;;;;23.91;32.38;101423.25;3600321;39;20124;-72
2021/06/12 01:17:02;;;;;;;4.47;3.08;;;;;;;23.91;32.60;101433.56;3605859;39;20148;-72
2021/06/12 01:19:53;;;;;;;5.43;3.30;;;;;;;23.89;32.76;101430.09;3608783;39;20455;-72
2021/06/12 01:22:28;;;;;;;6.22;3.50;;;;;;;23.86;32.96;101430.53;3605692;39;20087;-72
2021/06/12 01:25:06;;;;;;;5.70;3.38;;;;;;;23.85;32.74;101431.59;3608988;39;20055;-72
2021/06/12 01:28:08;;;;;;;5.47;3.47;;;;;;;23.78;32.88;101433.50;3612920;39;20044;-72
2021/06/12 01:30:41;;;;;;;7.32;4.25;;;;;;;23.78;32.80;101430.72;3596935;39;20136;-72
2021/06/12 01:33:13;;;;;;;8.50;4.43;;;;;;;23.77;33.11;101427.03;3597005;39;20059;-72
2021/06/12 01:35:43;;;;;;;7.63;4.78;;;;;;;23.76;32.62;101425.31;3595330;39;20066;-72
2021/06/12 01:38:14;;;;;;;6.97;4.45;;;;;;;23.76;33.13;101421.66;3611022;39;20331;-72
2021/06/12 01:40:45;;;;;;;8.93;5.10;;;;;;;23.75;33.02;101426.38;3599784;39;20044;-72
2021/06/12 01:43:15;;;;;;;7.97;5.20;;;;;;;23.73;32.96;101433.25;3611176;39;20109;-72
2021/06/12 01:45:47;;;;;;;7.60;4.82;;;;;;;23.73;33.33;101433.25;3607528;39;20051;-72
2021/06/12 01:48:16;;;;;;;7.35;4.90;;;;;;;23.67;33.43;101437.72;3612114;39;20055;-72
2021/06/12 01:50:45;;;;;;;8.02;4.93;;;;;;;23.68;33.42;101445.91;3597050;39;20063;-72
2021/06/12 01:53:16;;;;;;;6.63;4.18;;;;;;;23.69;33.31;101446.78;3606340;39;20058;-72
2021/06/12 01:55:46;;;;;;;6.65;3.92;;;;;;;23.64;33.14;101433.41;3605150;39;20032;-72
2021/06/12 01:58:18;;;;;;;6.43;3.22;;;;;;;23.65;33.59;101446.31;3606089;39;20048;-72
2021/06/12 02:00:48;;;;;;;4.83;2.90;;;;;;;23.63;33.26;101447.59;3607673;39;20427;-72
2021/06/12 02:03:18;;;;;;;5.50;3.10;;;;;;;23.63;33.53;101448.44;3608917;39;20055;-72
2021/06/12 02:05:47;;;;;;;6.07;3.17;;;;;;;23.62;33.10;101446.72;3613036;39;20054;-72
2021/06/12 02:08:16;;;;;;;5.03;3.05;;;;;;;23.62;33.13;101445.88;3610056;39;20327;-72
2021/06/12 02:10:46;;;;;;;4.85;3.08;;;;;;;23.62;33.35;101449.53;3598884;39;20024;-72
2021/06/12 02:13:16;;;;;;;4.47;3.28;;;;;;;23.62;33.37;101448.66;3612494;39;20051;-71
2021/06/12 02:15:47;;;;;;;5.88;3.45;;;;;;;23.61;33.14;101458.97;3606409;39;20059;-72
2021/06/12 02:18:17;;;;;;;4.67;3.27;;;;;;;23.57;33.31;101454.84;3615377;39;20124;-72
2021/06/12 02:20:48;;;;;;;6.10;3.25;;;;;;;23.58;33.33;101462.16;3610036;39;20055;-72
2021/06/12 02:23:16;;;;;;;5.07;3.38;;;;;;;23.59;33.34;101460.22;3598185;39;20055;-72
2021/06/12 02:25:46;;;;;;;5.80;3.95;;;;;;;23.59;33.63;101468.59;3607867;39;20055;-72
2021/06/12 02:28:18;;;;;;;7.67;4.37;;;;;;;23.57;33.46;101466.00;3612353;39;20104;-72
2021/06/12 02:30:53;;;;;;;6.50;3.78;;;;;;;23.61;33.77;101469.28;3604409;39;20063;-73
2021/06/12 02:33:24;;;;;;;7.53;4.07;;;;;;;23.58;33.88;101469.66;3609688;39;20497;-72
2021/06/12 02:35:54;;;;;;;6.93;4.15;;;;;;;23.57;33.68;101470.72;3606194;39;20044;-72
2021/06/12 02:38:22;;;;;;;8.18;4.45;;;;;;;23.57;33.90;101474.38;3606320;39;20078;-72
2021/06/12 02:40:51;;;;;;;7.18;3.70;;;;;;;23.55;33.81;101472.88;3608673;39;20059;-73
2021/06/12 02:43:19;;;;;;;7.13;3.88;;;;;;;23.54;33.79;101465.56;3604305;39;20087;-72
2021/06/12 02:45:48;;;;;;;6.10;3.58;;;;;;;23.55;33.67;101470.94;3611563;39;20067;-72
2021/06/12 02:48:17;;;;;;;5.43;2.95;;;;;;;23.53;33.79;101470.28;3607486;39;20440;-72
2021/06/12 02:50:48;;;;;;;5.55;3.10;;;;;;;23.53;33.70;101464.72;3608169;39;20047;-72
2021/06/12 02:53:17;;;;;;;5.28;3.10;;;;;;;23.53;33.64;101461.91;3595785;39;20059;-72
2021/06/12 02:55:49;;;;;;;5.05;2.80;;;;;;;23.52;33.46;101476.06;3598016;39;20051;-72
2021/06/12 02:58:22;;;;;;;4.97;2.88;;;;;;;23.49;34.22;101471.75;3607961;39;20047;-72
2021/06/12 03:00:53;;;;;;;5.03;2.65;;;;;;;23.50;33.55;101475.41;3608459;39;20047;-72
2021/06/12 03:03:22;;;;;;;3.63;2.40;;;;;;;23.46;33.29;101472.19;3601100;39;20303;-73
2021/06/12 03:05:53;;;;;;;5.70;2.47;;;;;;;23.47;33.93;101473.00;3601379;39;20312;-72
2021/06/12 03:08:23;;;;;;;5.28;2.70;;;;;;;23.42;33.85;101479.19;3608306;39;20050;-72
2021/06/12 03:10:53;;;;;;;4.43;2.70;;;;;;;23.42;33.94;101479.19;3612134;39;20063;-73
2021/06/12 03:13:26;;;;;;;4.65;2.40;;;;;;;23.42;33.36;101476.38;3606461;39;20060;-72
2021/06/12 03:15:57;;;;;;;4.57;2.45;;;;;;;23.42;33.61;101467.16;3609277;39;20165;-72
2021/06/12 03:18:26;;;;;;;4.60;2.47;;;;;;;23.40;33.40;101470.13;3602323;39;20075;-72
2021/06/12 03:21:01;;;;;;;5.32;2.85;;;;;;;23.40;33.89;101474.84;3612412;39;20120;-72
2021/06/12 03:23:31;;;;;;;3.53;2.25;;;;;;;23.36;33.42;101477.19;3599882;39;20051;-72
2021/06/12 03:26:00;;;;;;;4.85;2.38;;;;;;;23.35;33.91;101477.41;3606700;39;20055;-72
2021/06/12 03:28:30;;;;;;;4.03;2.30;;;;;;;23.36;33.94;101474.41;3607966;39;20418;-72
2021/06/12 03:31:01;;;;;;;5.85;2.80;;;;;;;23.36;33.82;101481.94;3602716;39;20569;-72
2021/06/12 03:33:29;;;;;;;5.35;2.60;;;;;;;23.31;33.86;101475.00;3608457;39;20054;-72
2021/06/12 03:35:58;;;;;;;4.68;2.60;;;;;;;23.31;33.94;101462.97;3606849;39;20046;-72
2021/06/12 03:38:27;;;;;;;5.28;2.72;;;;;;;23.30;34.17;101452.91;3609538;39;20055;-72
2021/06/12 03:40:55;;;;;;;5.68;2.83;;;;;;;23.28;34.13;101453.09;3609768;39;20080;-73
2021/06/12 03:43:24;;;;;;;6.13;2.92;;;;;;;23.28;33.89;101452.22;3608029;39;20055;-73
2021/06/12 03:45:56;;;;;;;4.97;2.70;;;;;;;23.27;34.10;101454.16;3600733;39;20157;-73
2021/06/12 03:48:26;;;;;;;5.33;2.80;;;;;;;23.26;34.26;101454.34;3594064;40;20036;-73
2021/06/12 03:50:56;;;;;;;4.97;2.75;;;;;;;23.25;34.29;101452.63;3608040;39;20754;-73
2021/06/12 03:53:30;;;;;;;5.38;2.97;;;;;;;23.25;34.35;101455.41;3610352;39;20392;-72
2021/06/12 03:56:00;;;;;;;5.07;2.95;;;;;;;23.22;34.64;101458.63;3608830;39;20309;-73
2021/06/12 03:58:27;;;;;;;4.88;2.75;;;;;;;23.20;34.00;101466.31;3603900;39;20087;-73
2021/06/12 04:00:56;;;;;;;4.60;2.85;;;;;;;23.19;34.08;101473.84;3607285;39;20066;-73
2021/06/12 04:03:23;;;;;;;4.70;2.85;;;;;;;23.18;34.40;101472.09;3608092;39;20055;-72
2021/06/12 04:05:52;;;;;;;5.20;3.00;;;;;;;23.19;34.38;101476.63;3609599;39;20051;-72
2021/06/12 04:08:20;;;;;;;5.45;3.30;;;;;;;23.16;34.74;101492.91;3608454;39;20055;-72
2021/06/12 04:10:48;;;;;;;5.65;3.50;;;;;;;23.16;34.57;101492.91;3612907;39;20050;-73
2021/06/12 04:13:15;;;;;;;5.88;3.30;;;;;;;23.15;34.61;101497.63;3609920;39;20086;-73
2021/06/12 04:15:43;;;;;;;5.47;3.60;;;;;;;23.15;34.80;101489.25;3605968;39;20055;-73
2021/06/12 04:18:12;;;;;;;7.07;4.00;;;;;;;23.14;34.92;101476.34;3600165;39;20399;-73
2021/06/12 04:20:40;;;;;;;6.45;3.60;;;;;;;23.13;34.43;101479.38;3606302;39;20052;-73
2021/06/12 04:23:09;;;;;;;6.10;3.78;;;;;;;23.12;34.68;101478.50;3606093;39;20039;-73
2021/06/12 04:25:39;;;;;;;6.70;3.95;;;;;;;23.09;34.52;101475.22;3610880;39;20128;-73
2021/06/12 04:28:10;;;;;;;6.38;3.80;;;;;;;23.07;34.68;101475.41;3604767;39;20035;-73
2021/06/12 04:30:38;;;;;;;6.82;4.25;;;;;;;23.06;35.17;101473.69;3603219;39;20394;-72
2021/06/12 04:33:06;;;;;;;6.25;4.05;;;;;;;23.06;35.14;101472.81;3604318;39;20137;-72
2021/06/12 04:35:35;;;;;;;6.25;4.03;;;;;;;23.05;34.88;101463.63;3606533;39;20339;-72
2021/06/12 04:38:16;;;;;;;6.32;4.13;;;;;;;23.06;35.02;101462.53;3601410;39;20127;-72
2021/06/12 04:40:46;;;;;;;6.90;4.40;;;;;;;23.06;34.82;101456.94;3599450;39;20047;-72
2021/06/12 04:43:25;;;;;;;6.50;3.92;;;;;;;23.06;35.09;101450.50;3594518;39;20047;-72
2021/06/12 04:45:53;;;;;;;6.80;4.07;;;;;;;23.06;35.01;101459.75;3609668;39;20108;-72
2021/06/12 04:48:22;;;;;;;7.80;4.18;;;;;;;23.07;35.25;101458.69;3612845;39;20061;-72
2021/06/12 04:50:51;;;;;;;5.72;4.03;;;;;;;23.07;35.42;101471.75;3611270;39;20427;-73
2021/06/12 04:53:40;;;;;;;6.43;4.15;;;;;;;23.08;35.33;101465.13;3605657;39;20038;-73
2021/06/12 04:56:27;;;;;;;7.38;4.38;;;;;;;23.06;35.46;101464.47;3608619;39;20086;-73
2021/06/12 04:59:15;;;;;;;5.85;4.05;;;;;;;23.06;34.90;101456.09;3606325;39;20112;-73
2021/06/12 05:02:03;;;;;;;6.10;3.83;;;;;;;23.06;35.31;101461.66;3602488;39;20035;-72
2021/06/12 05:04:45;;;;;;;6.45;3.85;;;;;;;23.05;35.29;101462.75;3594003;39;20323;-74
2021/06/12 05:07:31;;;;;;;7.65;3.75;;;;;;;23.05;34.94;101449.66;3598882;39;20470;-72
2021/06/12 05:10:19;;;;;;;5.18;3.47;;;;;;;23.07;35.47;101455.88;3600699;39;20044;-73
2021/06/12 05:13:07;;;;;;;5.63;3.63;;;;;;;23.06;35.57;101456.94;3605800;39;20059;-72
2021/06/12 05:15:41;;;;;;;6.07;3.90;;;;;;;23.08;35.67;101456.75;3601597;39;20392;-72
2021/06/12 05:18:28;;;;;;;6.22;3.90;;;;;;;23.08;35.70;101463.19;3600540;39;20043;-72
2021/06/12 05:21:03;;;;;;;6.53;4.10;;;;;;;23.09;35.15;101458.47;3601295;39;20058;-72
2021/06/12 05:23:43;;;;;;;6.13;4.32;;;;;;;23.08;35.36;101462.34;3604579;39;20056;-72
2021/06/12 05:26:25;;;;;;;5.72;3.17;;;;;;;23.09;35.68;101464.06;3597373;39;20067;-72
2021/06/12 05:29:13;;;;;;;7.38;3.78;;;;;;;23.06;35.75;101465.31;3605710;39;20044;-73
2021/06/12 05:32:01;;;;;;;5.15;3.47;;;;;;;23.06;35.60;101473.69;3613721;39;20066;-73
2021/06/12 05:34:48;;;;;;;4.80;3.13;;;;;;;23.06;35.54;101472.81;3603186;39;20083;-73
2021/06/12 05:37:36;;;;;;;5.38;3.22;;;;;;;23.07;35.30;101471.75;3602669;39;20036;-72
2021/06/12 05:40:23;;;;;;;5.40;3.53;;;;;;;23.07;35.66;101471.75;3604889;39;20063;-72
2021/06/12 05:43:12;;;;;;;5.05;3.30;;;;;;;23.10;35.32;101480.63;3591701;39;20054;-73
2021/06/12 05:46:01;;;;;;;5.00;2.85;;;;;;;23.10;35.70;101486.19;3609751;39;20282;-72
2021/06/12 05:48:49;;;;;;;4.35;2.63;;;;;;;23.12;35.61;101477.63;3603451;39;20047;-72
2021/06/12 05:51:36;;;;;;;4.57;2.70;;;;;;;23.13;35.78;101471.84;3612999;39;20079;-72
2021/06/12 05:54:24;;;;;;;3.65;2.33;;;;;;;23.14;35.55;101481.94;3610195;39;20128;-72
2021/06/12 05:57:12;;;;;;;4.65;2.38;;;;;;;23.15;35.38;101482.78;3602959;39;20048;-72
2021/06/12 06:00:01;;;;;;;4.63;2.78;;;;;;;23.17;36.03;101481.53;3601118;39;20334;-72
2021/06/12 06:02:59;;;;;;;4.45;2.80;;;;;;;23.18;36.14;101476.81;3609817;39;20044;-72
2021/06/12 06:05:47;;;;;;;4.15;2.60;;;;;;;23.20;35.95;101472.78;3608834;39;20043;-72
2021/06/12 06:08:35;;;;;;;4.05;2.55;;;;;;;23.24;35.93;101468.50;3592601;39;20076;-72
2021/06/12 06:11:23;;;;;;;3.20;2.10;;;;;;;23.27;36.14;101473.69;3613836;39;20100;-71
2021/06/12 06:13:51;;;;;;;4.13;2.47;;;;;;;23.33;35.79;101481.25;3608161;39;20063;-71
2021/06/12 06:16:24;;;;;;;3.67;1.90;;;;;;;23.38;35.76;101482.59;3606492;39;20048;-71
2021/06/12 06:18:53;;;;;;;3.63;2.35;;;;;;;23.39;35.87;101490.75;3594188;39;20061;-71
2021/06/12 06:21:21;;;;;;;4.03;2.25;;;;;;;23.43;35.81;101503.25;3598189;39;20047;-70
2021/06/12 06:23:53;;;;;;;3.33;1.90;;;;;;;23.49;35.52;101505.25;3609655;39;20083;-70
2021/06/12 06:26:23;;;;;;;3.35;2.05;;;;;;;23.48;35.66;101508.25;3609223;39;20403;-70
2021/06/12 06:28:50;;;;;;;3.92;1.92;;;;;;;23.53;35.22;101508.53;3612500;39;20055;-71
2021/06/12 06:31:20;;;;;;;3.38;2.10;;;;;;;23.57;35.30;101496.72;3608202;39;20063;-71
2021/06/12 06:33:48;;;;;;;3.63;2.20;;;;;;;23.59;35.48;101508.56;3606874;39;20103;-70
2021/06/12 06:36:17;;;;;;;3.78;1.80;;;;;;;23.61;35.53;101509.25;3603205;39;20058;-72
2021/06/12 06:38:45;;;;;;;3.22;1.85;;;;;;;23.66;35.19;101503.91;3610705;39;20133;-73
2021/06/12 06:41:13;;;;;;;2.83;1.63;;;;;;;23.68;35.09;101510.16;3602475;39;20354;-71
2021/06/12 06:43:41;;;;;;;3.40;1.92;;;;;;;23.72;34.87;101502.22;3605601;39;20058;-71
2021/06/12 06:46:09;;;;;;;3.10;1.80;;;;;;;23.75;35.12;101500.94;3607439;39;20131;-77
2021/06/12 06:48:38;;;;;;;3.67;2.33;;;;;;;23.79;34.92;101510.66;3597260;39;20055;-72
2021/06/12 06:51:06;;;;;;;3.70;2.15;;;;;;;23.79;34.84;101510.66;3600339;39;20051;-71
2021/06/12 06:53:34;;;;;;;4.25;2.65;;;;;;;23.79;34.84;101503.16;3605594;39;20070;-73
2021/06/12 06:56:03;;;;;;;4.07;2.40;;;;;;;23.82;34.96;101504.66;3606649;39;20428;-72
2021/06/12 06:58:32;;;;;;;4.55;2.40;;;;;;;23.83;35.02;101509.16;3606579;39;20051;-73
2021/06/12 07:01:03;;;;;;;;;;;;;;;23.55;35.33;101512.00;3593947;39;20083;-72
2021/06/12 07:03:31;;;;;;;4.60;2.53;;;;;;;23.79;34.76;101507.88;3609124;39;19952;-72
2021/06/12 07:06:00;;;;;;;4.03;2.60;;;;;;;23.85;34.82;101516.28;3608061;39;20044;-71
2021/06/12 07:08:29;;;;;;;5.65;3.63;;;;;;;23.81;34.61;101522.47;3610196;39;20082;-72
2021/06/12 07:10:57;;;;;;;4.70;3.08;;;;;;;23.79;34.21;101513.47;3598025;39;20055;-72
2021/06/12 07:13:25;;;;;;;4.82;3.50;;;;;;;23.77;34.59;101524.81;3607374;39;20058;-73
2021/06/12 07:15:53;;;;;;;5.30;3.78;;;;;;;23.74;34.35;101527.16;3607255;39;20104;-72
2021/06/12 07:18:24;;;;;;;5.97;3.72;;;;;;;23.72;34.66;101535.72;3607888;39;20051;-72
2021/06/12 07:20:52;;;;;;;4.72;3.50;;;;;;;23.68;34.91;101540.00;3608008;39;20434;-72
2021/06/12 07:23:21;;;;;;;5.40;4.28;;;;;;;23.67;34.67;101530.75;3601143;39;20438;-72
2021/06/12 07:25:49;;;;;;;5.80;4.32;;;;;;;23.62;35.02;101536.09;3597810;39;20129;-72
2021/06/12 07:28:17;;;;;;;6.25;4.65;;;;;;;23.60;35.06;101540.16;3604279;39;20052;-72
2021/06/12 07:30:45;;;;;;;7.63;5.35;;;;;;;23.57;35.06;101533.03;3609600;39;20080;-72
2021/06/12 07:33:14;;;;;;;7.07;5.22;;;;;;;23.57;34.57;101537.75;3613386;39;20313;-72
2021/06/12 07:35:43;;;;;;;6.40;4.55;;;;;;;23.55;35.05;101542.72;3602547;39;20059;-73
2021/06/12 07:38:12;;;;;;;6.72;5.65;;;;;;;23.52;35.07;101541.16;3612639;39;20039;-73
2021/06/12 07:40:43;;;;;;;8.27;5.97;;;;;;;23.52;34.56;101543.09;3609470;39;20047;-73
2021/06/12 07:43:11;;;;;;;6.88;5.55;;;;;;;23.48;34.75;101539.81;3608305;39;20047;-73
2021/06/12 07:45:40;;;;;;;7.40;6.28;;;;;;;23.47;35.08;101542.81;3608454;39;20133;-72
2021/06/12 07:48:09;;;;;;;9.05;7.50;;;;;;;23.46;34.91;101546.69;3603218;39;20128;-73
2021/06/12 07:50:37;;;;;;;8.50;6.40;;;;;;;23.43;34.66;101550.72;3607653;39;20086;-72
2021/06/12 07:53:05;;;;;;;8.07;7.13;;;;;;;23.40;34.88;101548.31;3609002;39;20047;-78
2021/06/12 07:55:33;;;;;;;8.10;6.88;;;;;;;23.38;34.67;101544.88;3604658;39;20032;-79
2021/06/12 07:58:06;;;;;;;7.72;6.85;;;;;;;23.38;35.22;101552.38;3610451;39;20037;-78
2021/06/12 08:00:34;;;;;;;8.27;7.13;;;;;;;23.31;34.80;101539.22;3609387;39;20128;-78
2021/06/12 08:03:02;;;;;;;7.43;6.32;;;;;;;23.28;34.94;101552.72;3611139;39;20050;-77
2021/06/12 08:05:32;;;;;;;8.27;6.50;;;;;;;23.23;35.10;101553.31;3613154;39;20048;-78
2021/06/12 08:08:00;;;;;;;7.63;6.65;;;;;;;23.20;34.75;101553.72;3604929;39;20049;-78
2021/06/12 08:10:28;;;;;;;7.85;6.72;;;;;;;23.17;35.21;101558.81;3606144;39;20036;-78
2021/06/12 08:12:56;;;;;;;7.40;6.45;;;;;;;23.13;35.08;101558.38;3606835;39;20028;-78
2021/06/12 08:15:26;;;;;;;7.10;6.38;;;;;;;23.12;35.20;101561.34;3606441;39;20040;-78
2021/06/12 08:17:54;;;;;;;9.18;7.22;;;;;;;23.06;35.03;101550.97;3609440;39;20124;-78
2021/06/12 08:20:24;;;;;;;7.78;6.70;;;;;;;23.02;35.48;101558.88;3603643;39;20050;-78
2021/06/12 08:22:52;;;;;;;7.88;7.07;;;;;;;23.00;35.46;101560.13;3598404;39;20400;-78
2021/06/12 08:25:20;;;;;;;8.15;7.07;;;;;;;22.95;35.12;101563.53;3599204;40;20032;-78
2021/06/12 08:27:48;;;;;;;8.07;7.00;;;;;;;22.91;35.24;101567.75;3603344;39;20148;-77
2021/06/12 08:30:18;;;;;;;8.63;7.03;;;;;;;22.89;35.48;101561.53;3608727;39;20340;-78
2021/06/12 08:32:50;;;;;;;8.02;7.22;;;;;;;22.87;35.54;101560.88;3600327;39;20369;-78
2021/06/12 08:35:19;;;;;;;6.97;6.28;;;;;;;22.78;35.54;101554.50;3590383;40;20110;-79
2021/06/12 08:37:46;;;;;;;7.88;7.07;;;;;;;22.76;35.26;101566.91;3589500;40;20034;-77
2021/06/12 08:40:15;;;;;;;7.47;6.30;;;;;;;22.72;35.61;101566.44;3612371;39;20035;-78
2021/06/12 08:42:43;;;;;;;8.38;7.50;;;;;;;22.70;35.20;101565.78;3611233;39;20059;-78
2021/06/12 08:45:14;;;;;;;8.23;7.32;;;;;;;22.70;35.49;101576.06;3609625;39;20440;-77
2021/06/12 08:47:42;;;;;;;8.30;7.22;;;;;;;22.65;35.55;101578.53;3601324;39;20413;-78
2021/06/12 08:50:12;;;;;;;7.80;6.82;;;;;;;22.63;35.48;101575.97;3599364;39;20024;-78
2021/06/12 08:52:42;;;;;;;9.50;6.90;;;;;;;22.56;35.49;101572.25;3609194;39;20126;-77
2021/06/12 08:55:11;;;;;;;7.88;6.95;;;;;;;22.55;35.84;101574.16;3612580;39;20067;-78
2021/06/12 08:57:39;;;;;;;7.07;6.38;;;;;;;22.50;35.75;101564.63;3604590;39;20047;-78
2021/06/12 09:00:10;;;;;;;8.90;6.88;;;;;;;22.50;36.04;101567.41;3586822;39;20091;-78
2021/06/12 09:03:11;;;;;;;8.52;6.72;;;;;;;22.45;35.71;101564.38;3599461;39;20040;-77
2021/06/12 09:05:52;;;;;;;8.25;6.60;;;;;;;22.43;35.78;101570.13;3605770;39;20039;-78
2021/06/12 09:08:21;;;;;;;8.48;6.68;;;;;;;22.39;36.04;101571.59;3602371;39;20051;-77
2021/06/12 09:10:52;;;;;;;7.05;6.35;;;;;;;22.39;36.26;101567.94;3598718;40;20032;-78
2021/06/12 09:13:38;;;;;;;7.72;6.80;;;;;;;22.37;36.60;101573.69;3593851;40;20051;-77
2021/06/12 09:16:08;;;;;;;7.30;6.38;;;;;;;22.36;36.38;101576.66;3602933;39;20058;-78
2021/06/12 09:18:42;;;;;;;9.43;7.32;;;;;;;22.39;36.71;101577.16;3596766;39;20054;-78
2021/06/12 09:21:22;;;;;;;8.05;7.22;;;;;;;22.41;36.72;101576.94;3613790;39;20332;-78
2021/06/12 09:23:52;;;;;;;7.47;6.68;;;;;;;22.38;36.53;101564.28;3600264;40;20063;-77
2021/06/12 09:26:21;;;;;;;8.23;6.60;;;;;;;22.44;37.04;101571.00;3606248;39;20377;-78
2021/06/12 09:28:53;;;;;;;7.05;6.30;;;;;;;22.51;37.14;101577.53;3592574;39;20079;-77
2021/06/12 09:31:25;;;;;;;8.38;6.57;;;;;;;22.56;37.27;101584.22;3615249;39;20133;-78
2021/06/12 09:33:56;;;;;;;7.43;5.93;;;;;;;22.60;37.09;101578.28;3602911;39;20083;-78
2021/06/12 09:36:36;;;;;;;7.05;5.75;;;;;;;22.70;36.82;101585.28;3601247;39;20028;-78
2021/06/12 09:39:12;;;;;;;8.38;6.75;;;;;;;22.74;36.68;101594.97;3591871;40;20058;-78
2021/06/12 09:41:43;;;;;;;7.70;6.53;;;;;;;22.79;36.72;101589.72;3610244;39;20046;-83
2021/06/12 09:44:11;;;;;;;8.00;7.15;;;;;;;22.85;36.46;101597.31;3607164;39;20028;-78
2021/06/12 09:46:41;;;;;;;8.57;7.68;;;;;;;22.91;36.10;101602.09;3603766;39;20040;-78
2021/06/12 09:49:14;;;;;;;9.40;7.53;;;;;;;22.93;36.56;101600.00;3604349;39;20064;-77
2021/06/12 09:52:01;;;;;;;7.93;7.13;;;;;;;22.94;36.11;101598.06;3613966;39;20051;-77
2021/06/12 09:54:43;;;;;;;7.95;7.15;;;;;;;22.97;36.16;101589.31;3600653;39;20325;-78
2021/06/12 09:57:14;;;;;;;8.27;7.47;;;;;;;22.96;35.95;101595.09;3591740;39;20055;-78
2021/06/12 09:59:45;;;;;;;8.23;6.53;;;;;;;22.97;36.24;101596.81;3584176;39;20032;-78
2021/06/12 10:02:14;;;;;;;8.98;7.53;;;;;;;22.96;36.09;101597.88;3597145;39;20065;-78
2021/06/12 10:04:56;;;;;;;9.18;8.25;;;;;;;22.97;36.02;101602.41;3606541;39;20036;-77
2021/06/12 10:07:26;;;;;;;9.30;7.93;;;;;;;22.93;36.00;101600.00;3609223;39;20042;-77
2021/06/12 10:09:55;;;;;;;8.82;7.90;;;;;;;22.91;36.04;101602.09;3609762;39;20109;-78
2021/06/12 10:12:26;;;;;;;8.02;6.57;;;;;;;22.89;35.94;101604.22;3597349;39;20059;-77
2021/06/12 10:14:57;;;;;;;9.63;8.07;;;;;;;22.84;36.11;101598.38;3599612;39;20379;-79
2021/06/12 10:17:27;;;;;;;9.30;8.13;;;;;;;22.82;36.15;101603.25;3609643;39;20024;-78
2021/06/12 10:19:58;;;;;;;9.25;8.18;;;;;;;22.79;36.25;101592.50;3609812;39;20087;-78
2021/06/12 10:22:27;;;;;;;8.48;7.38;;;;;;;22.74;36.13;101606.13;3599955;39;20047;-78
2021/06/12 10:24:56;;;;;;;9.00;7.68;;;;;;;22.70;36.13;101607.59;3608631;39;20044;-77
2021/06/12 10:27:26;;;;;;;8.43;7.03;;;;;;;22.66;35.92;101611.81;3615676;39;20030;-79
2021/06/12 10:29:54;;;;;;;11.23;8.45;;;;;;;22.64;36.22;101610.31;3609444;39;20044;-77
2021/06/12 10:32:22;;;;;;;9.80;8.02;;;;;;;22.60;36.18;101612.59;3610547;39;20055;-77
2021/06/12 10:34:52;;;;;;;10.60;7.68;;;;;;;22.55;36.17;101613.22;3593980;40;20148;-77
2021/06/12 10:37:20;;;;;;;10.15;7.97;;;;;;;22.51;36.61;101603.47;3606245;39;20076;-76
2021/06/12 10:40:03;;;;;;;9.02;7.00;;;;;;;22.51;36.66;101624.91;3591712;39;20076;-77
2021/06/12 10:42:31;;;;;;;9.98;7.72;;;;;;;22.43;36.35;101620.31;3594603;39;20336;-77
2021/06/12 10:45:13;;;;;;;10.55;7.15;;;;;;;22.45;36.42;101621.00;3607613;39;20039;-77
2021/06/12 10:47:46;;;;;;;11.50;8.32;;;;;;;22.41;36.19;101610.41;3607136;39;20047;-78
2021/06/12 10:50:32;;;;;;;10.98;8.32;;;;;;;22.38;36.76;101611.66;3600129;39;20055;-77
2021/06/12 10:53:18;;;;;;;12.15;9.25;;;;;;;22.35;36.81;101606.47;3603198;39;20044;-77
2021/06/12 10:55:50;;;;;;;12.43;7.53;;;;;;;22.34;36.67;101607.53;3613744;39;20050;-77
2021/06/12 10:58:44;;;;;;;11.05;8.10;;;;;;;22.33;37.11;101600.22;3594139;39;20032;-77
2021/06/12 11:01:21;;;;;;;9.95;7.28;;;;;;;22.33;36.83;101603.00;3602085;39;20080;-78
2021/06/12 11:04:00;;;;;;;9.90;7.60;;;;;;;22.39;37.18;101606.97;3598322;39;20031;-76
2021/06/12 11:06:39;;;;;;;11.57;7.70;;;;;;;22.42;37.42;101599.06;3609386;39;20328;-77
2021/06/12 11:09:40;;;;;;;11.82;8.18;;;;;;;22.40;37.17;101597.50;3599479;40;20539;-77
2021/06/12 11:12:35;;;;;;;10.75;7.57;;;;;;;22.48;37.12;101603.84;3585301;39;20099;-77
2021/06/12 11:15:08;;;;;;;10.75;7.63;;;;;;;22.57;36.72;101596.25;3603554;39;20374;-77
2021/06/12 11:17:37;;;;;;;10.40;8.02;;;;;;;22.62;37.03;101595.69;3607353;39;20048;-76
2021/06/12 11:20:28;;;;;;;10.85;7.30;;;;;;;22.70;36.84;101593.66;3601009;39;20070;-77
2021/06/12 11:23:06;;;;;;;10.02;7.35;;;;;;;22.80;36.86;101591.44;3606281;39;20058;-78
2021/06/12 11:25:57;;;;;;;10.38;7.32;;;;;;;22.87;36.75;101598.00;3595152;40;20152;-78
2021/06/12 11:28:34;;;;;;;9.00;7.05;;;;;;;22.98;36.22;101604.09;3609779;39;20352;-77
2021/06/12 11:31:24;;;;;;;10.02;7.68;;;;;;;23.00;35.97;101605.66;3600540;39;20091;-76
2021/06/12 11:34:26;;;;;;;10.40;7.03;;;;;;;23.00;35.82;101607.56;3607221;39;20047;-77
2021/06/12 11:37:17;;;;;;;8.73;6.85;;;;;;;23.07;35.76;101606.59;3607922;39;20031;-77
2021/06/12 11:39:51;;;;;;;8.85;6.85;;;;;;;23.12;35.06;101615.25;3599205;40;20129;-77
2021/06/12 11:42:25;;;;;;;11.07;7.45;;;;;;;23.11;35.47;101605.16;3582406;40;20494;-78
2021/06/12 11:45:19;;;;;;;9.65;6.72;;;;;;;23.15;34.96;101602.81;3607925;39;20036;-77
2021/06/12 11:47:48;;;;;;;10.65;7.15;;;;;;;23.11;35.04;101610.72;3609874;39;20032;-78
2021/06/12 11:50:17;;;;;;;9.80;7.32;;;;;;;23.11;34.93;101613.50;3608335;39;20031;-77
2021/06/12 11:52:50;;;;;;;11.02;7.78;;;;;;;23.10;35.16;101600.63;3613165;39;20038;-78
2021/06/12 11:55:24;;;;;;;13.02;9.27;;;;;;;23.11;34.98;101607.06;3608704;39;20066;-76
2021/06/12 11:57:55;;;;;;;10.95;7.95;;;;;;;23.08;34.88;101599.06;3609286;39;20090;-78
2021/06/12 12:00:30;;;;;;;12.02;7.93;;;;;;;23.08;34.83;101593.50;3598019;39;20047;-78
2021/06/12 12:03:00;;;;;;;11.95;8.02;;;;;;;23.03;34.91;101604.41;3613662;39;20023;-77